createdAt,value
2023-04-11T00:00:27.836Z,4.92
2023-04-11T00:01:29.994Z,4.91
2023-04-11T00:02:34.766Z,4.89
2023-04-11T00:03:38.116Z,4.89
2023-04-11T00:04:41.343Z,4.85
2023-04-11T00:05:43.317Z,4.81
2023-04-11T00:06:47.659Z,4.79
2023-04-11T00:07:50.177Z,4.76
2023-04-11T00:08:53.338Z,4.75
2023-04-11T00:09:55.749Z,4.74
2023-04-11T00:10:58.988Z,4.74
2023-04-11T00:12:01.941Z,4.75
2023-04-11T00:13:04.743Z,4.75
2023-04-11T00:14:08.745Z,4.74
2023-04-11T00:15:12.170Z,4.74
2023-04-11T00:16:14.201Z,4.74
2023-04-11T00:17:18.020Z,4.71
2023-04-11T00:18:19.844Z,4.71
2023-04-11T00:19:23.225Z,4.69
2023-04-11T00:20:25.334Z,4.68
2023-04-11T00:21:28.276Z,4.65
2023-04-11T00:22:33.558Z,4.63
2023-04-11T00:23:36.743Z,4.62
2023-04-11T00:24:38.600Z,4.62
2023-04-11T00:25:41.675Z,4.60
2023-04-11T00:26:44.671Z,4.56
2023-04-11T00:27:47.154Z,4.54
2023-04-11T00:28:49.999Z,4.53
2023-04-11T00:29:52.847Z,4.50
2023-04-11T00:30:55.780Z,4.47
2023-04-11T00:31:57.690Z,4.43
2023-04-11T00:33:00.870Z,4.40
2023-04-11T00:34:02.758Z,4.37
2023-04-11T00:35:08.629Z,4.34
2023-04-11T00:36:12.767Z,4.32
2023-04-11T00:37:15.583Z,4.30
2023-04-11T00:38:18.723Z,4.29
2023-04-11T00:39:22.733Z,4.28
2023-04-11T00:40:24.550Z,4.28
2023-04-11T00:41:27.413Z,4.27
2023-04-11T00:42:29.513Z,4.28
2023-04-11T00:43:32.303Z,4.28
2023-04-11T00:44:34.655Z,4.28
2023-04-11T00:45:37.953Z,4.28
2023-04-11T00:46:43.157Z,4.28
2023-04-11T00:47:47.132Z,4.27
2023-04-11T00:48:49.037Z,4.28
2023-04-11T00:49:51.867Z,4.29
2023-04-11T00:50:54.125Z,4.32
2023-04-11T00:51:57.700Z,4.32
2023-04-11T00:52:59.616Z,4.32
2023-04-11T00:54:03.985Z,4.33
2023-04-11T00:55:07.089Z,4.33
2023-04-11T00:56:11.176Z,4.35
2023-04-11T00:57:13.424Z,4.37
2023-04-11T00:58:17.671Z,4.39
2023-04-11T00:59:19.556Z,4.43
2023-04-11T01:00:22.958Z,4.44
2023-04-11T01:01:25.493Z,4.44
2023-04-11T01:02:28.629Z,4.46
2023-04-11T01:03:31.067Z,4.45
2023-04-11T01:04:37.492Z,4.46
2023-04-11T01:05:39.514Z,4.47
2023-04-11T01:06:42.717Z,4.48
2023-04-11T01:07:47.583Z,4.49
2023-04-11T01:08:53.720Z,4.51
2023-04-11T01:09:57.692Z,4.53
2023-04-11T01:11:00.773Z,4.53
2023-04-11T01:12:03.871Z,4.56
2023-04-11T01:13:06.780Z,4.58
2023-04-11T01:14:08.718Z,4.58
2023-04-11T01:15:11.549Z,4.60
2023-04-11T01:16:15.088Z,4.61
2023-04-11T01:17:21.800Z,4.61
2023-04-11T01:18:24.109Z,4.60
2023-04-11T01:19:27.958Z,4.60
2023-04-11T01:20:31.716Z,4.61
2023-04-11T01:21:36.177Z,4.60
2023-04-11T01:22:38.712Z,4.61
2023-04-11T01:23:43.570Z,4.61
2023-04-11T01:24:45.482Z,4.61
2023-04-11T01:25:48.393Z,4.62
2023-04-11T01:26:50.476Z,4.62
2023-04-11T01:27:53.339Z,4.63
2023-04-11T01:28:55.460Z,4.61
2023-04-11T01:29:58.552Z,4.60
2023-04-11T01:31:00.453Z,4.56
2023-04-11T01:32:03.477Z,4.54
2023-04-11T01:33:05.700Z,4.52
2023-04-11T01:34:12.776Z,4.52
2023-04-11T01:35:14.946Z,4.49
2023-04-11T01:36:17.861Z,4.49
2023-04-11T01:37:19.751Z,4.49
2023-04-11T01:38:22.647Z,4.50
2023-04-11T01:39:28.004Z,4.50
2023-04-11T01:40:32.597Z,4.49
2023-04-11T01:41:35.074Z,4.49
2023-04-11T01:42:38.906Z,4.49
2023-04-11T01:43:40.890Z,4.51
2023-04-11T01:44:44.116Z,4.50
2023-04-11T01:45:46.428Z,4.52
2023-04-11T01:46:49.377Z,4.52
2023-04-11T01:47:51.953Z,4.54
2023-04-11T01:48:56.284Z,4.51
2023-04-11T01:49:58.554Z,4.48
2023-04-11T01:51:01.427Z,4.43
2023-04-11T01:52:03.668Z,4.39
2023-04-11T01:53:06.535Z,4.38
2023-04-11T01:54:08.388Z,4.35
2023-04-11T01:55:15.939Z,4.33
2023-04-11T01:56:17.792Z,4.31
2023-04-11T01:57:22.500Z,4.31
2023-04-11T01:58:24.541Z,4.32
2023-04-11T01:59:27.356Z,4.33
2023-04-11T02:00:29.589Z,4.33
2023-04-11T02:01:34.155Z,4.34
2023-04-11T02:02:36.166Z,4.34
2023-04-11T02:03:40.878Z,4.35
2023-04-11T02:04:42.875Z,4.36
2023-04-11T02:05:47.698Z,4.37
2023-04-11T02:06:49.577Z,4.36
2023-04-11T02:07:55.596Z,4.36
2023-04-11T02:08:57.619Z,4.37
2023-04-11T02:10:01.277Z,4.37
2023-04-11T02:11:05.394Z,4.37
2023-04-11T02:12:08.504Z,4.38
2023-04-11T02:13:10.830Z,4.36
2023-04-11T02:14:15.301Z,4.38
2023-04-11T02:15:17.607Z,4.37
2023-04-11T02:16:20.895Z,4.37
2023-04-11T02:17:25.824Z,4.38
2023-04-11T02:18:28.738Z,4.38
2023-04-11T02:19:31.029Z,4.38
2023-04-11T02:20:34.029Z,4.39
2023-04-11T02:21:36.202Z,4.40
2023-04-11T02:22:39.035Z,4.39
2023-04-11T02:23:41.146Z,4.40
2023-04-11T02:24:44.002Z,4.40
2023-04-11T02:25:45.807Z,4.41
2023-04-11T02:26:50.408Z,4.40
2023-04-11T02:27:52.632Z,4.39
2023-04-11T02:28:55.701Z,4.39
2023-04-11T02:29:57.891Z,4.39
2023-04-11T02:31:00.872Z,4.38
2023-04-11T02:32:03.217Z,4.38
2023-04-11T02:33:08.968Z,4.40
2023-04-11T02:34:10.837Z,4.41
2023-04-11T02:35:13.702Z,4.43
2023-04-11T02:36:16.351Z,4.45
2023-04-11T02:37:19.671Z,4.44
2023-04-11T02:38:21.631Z,4.45
2023-04-11T02:39:24.696Z,4.44
2023-04-11T02:40:26.556Z,4.43
2023-04-11T02:41:29.351Z,4.42
2023-04-11T02:42:32.645Z,4.42
2023-04-11T02:43:35.647Z,4.44
2023-04-11T02:44:38.002Z,4.45
2023-04-11T02:45:41.274Z,4.44
2023-04-11T02:46:43.546Z,4.45
2023-04-11T02:47:48.682Z,4.46
2023-04-11T02:48:51.335Z,4.45
2023-04-11T02:49:54.180Z,4.45
2023-04-11T02:51:01.706Z,4.46
2023-04-11T02:52:05.254Z,4.46
2023-04-11T02:53:07.563Z,4.45
2023-04-11T02:54:12.693Z,4.46
2023-04-11T02:55:15.010Z,4.46
2023-04-11T02:56:19.001Z,4.46
2023-04-11T02:57:23.195Z,4.46
2023-04-11T02:58:29.234Z,4.45
2023-04-11T02:59:36.268Z,4.43
2023-04-11T03:00:39.219Z,4.42
2023-04-11T03:01:45.060Z,4.40
2023-04-11T03:02:49.131Z,4.36
2023-04-11T03:03:55.410Z,4.34
2023-04-11T03:05:03.993Z,4.30
2023-04-11T03:06:08.528Z,4.28
2023-04-11T03:07:12.969Z,4.25
2023-04-11T03:08:14.970Z,4.24
2023-04-11T03:09:25.014Z,4.22
2023-04-11T03:10:27.166Z,4.21
2023-04-11T03:11:30.964Z,4.20
2023-04-11T03:12:32.782Z,4.20
2023-04-11T03:13:40.725Z,4.19
2023-04-11T03:14:42.999Z,4.20
2023-04-11T03:15:45.890Z,4.23
2023-04-11T03:16:48.561Z,4.26
2023-04-11T03:17:51.498Z,4.26
2023-04-11T03:18:53.741Z,4.26
2023-04-11T03:19:57.076Z,4.23
2023-04-11T03:21:00.506Z,4.23
2023-04-11T03:22:03.700Z,4.22
2023-04-11T03:23:05.674Z,4.21
2023-04-11T03:24:09.935Z,4.22
2023-04-11T03:25:11.811Z,4.20
2023-04-11T03:26:15.373Z,4.17
2023-04-11T03:27:18.659Z,4.16
2023-04-11T03:28:24.264Z,4.16
2023-04-11T03:29:27.433Z,4.15
2023-04-11T03:30:53.297Z,4.14
2023-04-11T03:31:57.931Z,4.14
2023-04-11T03:33:01.357Z,4.15
2023-04-11T03:34:04.749Z,4.16
2023-04-11T03:35:08.184Z,4.17
2023-04-11T03:36:12.645Z,4.18
2023-04-11T03:37:14.800Z,4.17
2023-04-11T03:38:17.861Z,4.18
2023-04-11T03:39:21.717Z,4.17
2023-04-11T03:40:25.870Z,4.16
2023-04-11T03:41:47.498Z,4.13
2023-04-11T03:42:50.033Z,4.12
2023-04-11T03:43:57.179Z,4.13
2023-04-11T03:45:00.644Z,4.12
2023-04-11T03:46:03.502Z,4.10
2023-04-11T03:47:11.763Z,4.07
2023-04-11T03:48:20.016Z,4.05
2023-04-11T03:49:30.065Z,4.02
2023-04-11T03:50:33.297Z,3.99
2023-04-11T03:51:37.479Z,3.98
2023-04-11T03:52:42.885Z,3.96
2023-04-11T03:53:49.149Z,3.95
2023-04-11T03:55:14.040Z,3.91
2023-04-11T03:56:17.832Z,3.90
2023-04-11T03:57:19.724Z,3.89
2023-04-11T03:58:23.108Z,3.89
2023-04-11T03:59:26.480Z,3.89
2023-04-11T04:00:38.840Z,3.90
2023-04-11T04:01:43.772Z,3.89
2023-04-11T04:02:46.936Z,3.90
2023-04-11T04:03:50.792Z,3.93
2023-04-11T04:04:58.245Z,3.95
2023-04-11T04:06:04.451Z,3.97
2023-04-11T04:07:10.055Z,3.97
2023-04-11T04:08:16.252Z,3.97
2023-04-11T04:09:22.156Z,3.96
2023-04-11T04:10:28.353Z,3.92
2023-04-11T04:11:31.299Z,3.89
2023-04-11T04:12:34.460Z,3.87
2023-04-11T04:13:44.942Z,3.83
2023-04-11T04:14:50.262Z,3.80
2023-04-11T04:15:55.766Z,3.79
2023-04-11T04:17:01.096Z,3.78
2023-04-11T04:18:05.961Z,3.78
2023-04-11T04:19:17.079Z,3.75
2023-04-11T04:20:22.351Z,3.74
2023-04-11T04:21:32.630Z,3.73
2023-04-11T04:22:37.084Z,3.74
2023-04-11T04:23:39.403Z,3.75
2023-04-11T04:25:01.185Z,3.74
2023-04-11T04:26:06.635Z,3.76
2023-04-11T04:27:13.702Z,3.76
2023-04-11T04:28:22.421Z,3.78
2023-04-11T04:29:34.089Z,3.81
2023-04-11T04:30:38.931Z,3.83
2023-04-11T04:31:52.981Z,3.84
2023-04-11T04:33:02.766Z,3.85
2023-04-11T04:34:09.511Z,3.86
2023-04-11T04:35:16.561Z,3.87
2023-04-11T04:36:19.767Z,3.88
2023-04-11T04:37:25.570Z,3.90
2023-04-11T04:38:42.001Z,3.90
2023-04-11T04:39:45.190Z,3.90
2023-04-11T04:40:55.848Z,3.92
2023-04-11T04:41:59.305Z,3.93
2023-04-11T04:43:11.608Z,3.95
2023-04-11T04:44:23.366Z,3.96
2023-04-11T04:45:30.107Z,3.96
2023-04-11T04:46:36.800Z,3.99
2023-04-11T04:47:42.450Z,4.00
2023-04-11T04:48:44.774Z,4.00
2023-04-11T04:49:48.001Z,4.03
2023-04-11T04:50:51.245Z,4.04
2023-04-11T04:51:55.471Z,4.04
2023-04-11T04:52:58.216Z,4.06
2023-04-11T04:54:01.059Z,4.09
2023-04-11T04:55:04.059Z,4.14
2023-04-11T04:56:07.460Z,4.19
2023-04-11T04:57:14.535Z,4.25
2023-04-11T04:58:16.656Z,4.30
2023-04-11T04:59:19.502Z,4.34
2023-04-11T05:00:27.424Z,4.39
2023-04-11T05:01:35.315Z,4.45
2023-04-11T05:02:40.610Z,4.47
2023-04-11T05:03:51.029Z,4.51
2023-04-11T05:05:04.264Z,4.53
2023-04-11T05:06:09.450Z,4.56
2023-04-11T05:07:13.882Z,4.57
2023-04-11T05:08:18.586Z,4.59
2023-04-11T05:09:21.749Z,4.62
2023-04-11T05:10:27.038Z,4.67
2023-04-11T05:11:29.345Z,4.69
2023-04-11T05:12:32.536Z,4.74
2023-04-11T05:13:40.171Z,4.76
2023-04-11T05:14:43.551Z,4.82
2023-04-11T05:15:48.857Z,4.83
2023-04-11T05:16:52.218Z,4.86
2023-04-11T05:17:54.512Z,4.90
2023-04-11T05:18:59.194Z,4.94
2023-04-11T05:20:01.650Z,5.00
2023-04-11T05:21:06.669Z,5.06
2023-04-11T05:22:13.168Z,5.13
2023-04-11T05:23:21.585Z,5.20
2023-04-11T05:24:26.881Z,5.28
2023-04-11T05:25:31.997Z,5.36
2023-04-11T05:26:34.629Z,5.45
2023-04-11T05:27:37.876Z,5.57
2023-04-11T05:28:41.589Z,5.60
2023-04-11T05:29:49.016Z,5.63
2023-04-11T05:30:53.380Z,5.64
2023-04-11T05:31:56.657Z,5.64
2023-04-11T05:32:58.966Z,5.69
2023-04-11T05:34:03.827Z,5.75
2023-04-11T05:35:07.940Z,5.84
2023-04-11T05:36:28.458Z,5.94
2023-04-11T05:37:31.433Z,6.07
2023-04-11T05:38:34.685Z,6.15
2023-04-11T05:39:37.816Z,6.25
2023-04-11T05:40:40.058Z,6.38
2023-04-11T05:41:44.358Z,6.48
2023-04-11T05:42:46.604Z,6.59
2023-04-11T05:43:49.678Z,6.72
2023-04-11T05:44:52.065Z,6.85
2023-04-11T05:45:55.288Z,6.95
2023-04-11T05:46:58.642Z,7.04
2023-04-11T05:48:01.453Z,7.15
2023-04-11T05:49:06.266Z,7.28
2023-04-11T05:50:10.343Z,7.46
2023-04-11T05:51:14.003Z,7.64
2023-04-11T05:52:16.275Z,7.84
2023-04-11T05:53:19.732Z,8.06
2023-04-11T05:54:33.240Z,8.24
2023-04-11T05:55:35.504Z,8.40
2023-04-11T05:56:42.411Z,8.52
2023-04-11T05:57:46.718Z,8.64
2023-04-11T05:58:49.787Z,8.76
2023-04-11T05:59:53.092Z,8.86
2023-04-11T06:00:59.523Z,8.92
2023-04-11T06:02:01.997Z,8.94
2023-04-11T06:03:05.505Z,8.95
2023-04-11T06:04:10.339Z,8.99
2023-04-11T06:05:13.679Z,9.09
2023-04-11T06:06:16.970Z,9.20
2023-04-11T06:07:19.340Z,9.35
2023-04-11T06:08:23.037Z,9.56
2023-04-11T06:09:26.802Z,9.77
2023-04-11T06:10:30.604Z,9.96
2023-04-11T06:11:34.089Z,10.13
2023-04-11T06:12:36.590Z,10.31
2023-04-11T06:13:40.010Z,10.43
2023-04-11T06:14:42.359Z,10.57
2023-04-11T06:15:45.614Z,10.74
2023-04-11T06:16:47.956Z,10.86
2023-04-11T06:17:51.187Z,10.95
2023-04-11T06:18:53.207Z,11.04
2023-04-11T06:19:57.801Z,11.10
2023-04-11T06:21:00.584Z,11.18
2023-04-11T06:22:02.451Z,11.31
2023-04-11T06:23:06.228Z,11.35
2023-04-11T06:24:10.280Z,11.45
2023-04-11T06:25:13.070Z,11.58
2023-04-11T06:26:17.407Z,11.76
2023-04-11T06:27:19.467Z,11.95
2023-04-11T06:28:23.575Z,12.13
2023-04-11T06:29:26.176Z,12.34
2023-04-11T06:30:29.288Z,12.54
2023-04-11T06:31:31.256Z,12.73
2023-04-11T06:32:34.190Z,12.84
2023-04-11T06:33:37.002Z,12.93
2023-04-11T06:34:39.088Z,13.09
2023-04-11T06:35:43.694Z,13.27
2023-04-11T06:36:48.106Z,13.41
2023-04-11T06:37:50.946Z,13.47
2023-04-11T06:38:52.921Z,13.54
2023-04-11T06:39:55.814Z,13.55
2023-04-11T06:40:58.666Z,13.58
2023-04-11T06:42:00.771Z,13.54
2023-04-11T06:43:03.736Z,13.49
2023-04-11T06:44:06.383Z,13.42
2023-04-11T06:45:10.661Z,13.31
2023-04-11T06:46:13.661Z,13.18
2023-04-11T06:47:15.826Z,12.99
2023-04-11T06:48:20.379Z,12.83
2023-04-11T06:49:23.038Z,12.68
2023-04-11T06:50:26.140Z,12.55
2023-04-11T06:51:31.368Z,12.44
2023-04-11T06:52:34.302Z,12.35
2023-04-11T06:53:36.764Z,12.26
2023-04-11T06:54:40.693Z,12.20
2023-04-11T06:55:42.645Z,12.15
2023-04-11T06:56:45.746Z,12.15
2023-04-11T06:57:48.819Z,12.12
2023-04-11T06:58:50.665Z,12.11
2023-04-11T06:59:53.476Z,12.15
2023-04-11T07:00:55.743Z,12.23
2023-04-11T07:01:58.744Z,12.26
2023-04-11T07:03:01.992Z,12.33
2023-04-11T07:04:05.567Z,12.35
2023-04-11T07:05:10.289Z,12.41
2023-04-11T07:06:12.337Z,12.49
2023-04-11T07:07:16.974Z,12.53
2023-04-11T07:08:18.868Z,12.53
2023-04-11T07:09:21.830Z,12.52
2023-04-11T07:10:24.893Z,12.50
2023-04-11T07:11:32.852Z,12.54
2023-04-11T07:12:34.798Z,12.59
2023-04-11T07:13:38.216Z,12.64
2023-04-11T07:14:40.576Z,12.64
2023-04-11T07:15:43.472Z,12.64
2023-04-11T07:16:46.624Z,12.66
2023-04-11T07:17:50.941Z,12.73
2023-04-11T07:18:54.904Z,12.83
2023-04-11T07:19:57.922Z,12.88
2023-04-11T07:20:59.752Z,13.02
2023-04-11T07:22:03.478Z,13.19
2023-04-11T08:24:29.813Z,14.67
2023-04-11T08:25:33.264Z,14.62
2023-04-11T08:26:36.303Z,14.53
2023-04-11T08:27:38.359Z,14.50
2023-04-11T08:28:43.061Z,14.44
2023-04-11T08:32:16.841Z,14.08
2023-04-11T08:33:20.257Z,14.09
2023-04-11T08:34:24.860Z,14.11
2023-04-11T08:35:28.060Z,14.13
2023-04-11T08:37:14.581Z,14.11
2023-04-11T08:38:16.835Z,14.07
2023-04-11T08:42:24.402Z,13.84
2023-04-11T08:43:47.968Z,13.87
2023-04-11T08:44:55.945Z,13.90
2023-04-11T08:45:59.233Z,13.95
2023-04-11T08:47:01.109Z,13.96
2023-04-11T08:48:04.126Z,14.01
2023-04-11T08:49:07.096Z,14.10
2023-04-11T08:50:09.661Z,14.21
2023-04-11T08:51:14.749Z,14.26
2023-04-11T08:52:16.809Z,14.35
2023-04-11T08:53:21.529Z,14.46
2023-04-11T08:54:23.385Z,14.53
2023-04-11T08:55:26.314Z,14.66
2023-04-11T08:56:29.137Z,14.81
2023-04-11T08:57:34.902Z,14.90
2023-04-11T08:58:38.791Z,14.94
2023-04-11T08:59:48.959Z,14.99
2023-04-11T09:00:52.054Z,15.08
2023-04-11T09:02:07.008Z,15.21
2023-04-11T09:03:11.974Z,15.27
2023-04-11T09:04:13.963Z,15.29
2023-04-11T09:05:25.980Z,15.35
2023-04-11T09:06:31.034Z,15.40
2023-04-11T09:07:48.237Z,15.56
2023-04-11T09:08:51.900Z,15.70
2023-04-11T09:09:55.412Z,15.85
2023-04-11T09:11:02.428Z,16.00
2023-04-11T09:12:05.528Z,16.12
2023-04-11T09:13:21.364Z,16.28
2023-04-11T09:14:25.648Z,16.44
2023-04-11T09:15:30.090Z,16.55
2023-04-11T09:16:32.432Z,16.65
2023-04-11T09:17:41.882Z,16.83
2023-04-11T09:18:47.380Z,16.90
2023-04-11T09:19:49.613Z,17.00
2023-04-11T09:20:59.905Z,17.14
2023-04-11T09:22:05.164Z,17.29
2023-04-11T09:23:08.106Z,17.38
2023-04-11T09:24:17.061Z,17.43
2023-04-11T09:25:23.008Z,17.39
2023-04-11T09:26:31.730Z,17.39
2023-04-11T09:27:35.141Z,17.43
2023-04-11T09:28:44.929Z,17.53
2023-04-11T09:29:49.691Z,17.65
2023-04-11T09:30:55.622Z,17.74
2023-04-11T09:31:58.649Z,17.75
2023-04-11T09:33:22.805Z,17.63
2023-04-11T09:34:27.829Z,17.50
2023-04-11T09:35:33.165Z,17.40
2023-04-11T09:36:35.466Z,17.30
2023-04-11T09:37:49.274Z,17.19
2023-04-11T09:38:54.162Z,17.09
2023-04-11T09:39:59.130Z,16.99
2023-04-11T09:41:03.195Z,16.91
2023-04-11T09:42:24.063Z,16.81
2023-04-11T09:43:26.250Z,16.79
2023-04-11T09:44:39.803Z,16.83
2023-04-11T09:45:53.657Z,16.94
2023-04-11T09:47:32.937Z,17.19
2023-04-11T09:49:00.888Z,17.33
2023-04-11T09:49:59.991Z,17.38
2023-04-11T09:51:04.559Z,17.40
2023-04-11T09:52:07.731Z,17.40
2023-04-11T09:53:10.739Z,17.34
2023-04-11T09:54:17.121Z,17.26
2023-04-11T09:55:22.036Z,17.20
2023-04-11T09:56:26.618Z,17.14
2023-04-11T09:57:30.889Z,17.04
2023-04-11T09:58:34.717Z,16.99
2023-04-11T09:59:40.445Z,16.94
2023-04-11T10:00:44.974Z,16.94
2023-04-11T10:01:49.065Z,16.99
2023-04-11T10:02:54.041Z,16.99
2023-04-11T10:03:58.313Z,17.01
2023-04-11T10:05:04.312Z,17.09
2023-04-11T10:06:09.323Z,17.14
2023-04-11T10:07:16.947Z,17.15
2023-04-11T10:08:26.926Z,17.20
2023-04-11T10:09:31.380Z,17.31
2023-04-11T10:10:33.636Z,17.49
2023-04-11T10:11:36.884Z,17.73
2023-04-11T10:12:39.176Z,17.95
2023-04-11T10:13:43.300Z,18.11
2023-04-11T10:14:46.993Z,18.19
2023-04-11T10:16:09.042Z,18.26
2023-04-11T10:17:12.875Z,18.37
2023-04-11T10:18:15.751Z,18.49
2023-04-11T10:19:24.651Z,18.57
2023-04-11T10:20:46.910Z,18.65
2023-04-11T10:21:50.497Z,18.66
2023-04-11T10:23:00.781Z,18.74
2023-04-11T10:24:10.438Z,18.80
2023-04-11T10:25:15.728Z,18.85
2023-04-11T10:26:18.720Z,18.94
2023-04-11T10:27:48.889Z,19.05
2023-04-11T10:29:00.541Z,19.16
2023-04-11T10:30:04.304Z,19.28
2023-04-11T10:31:09.950Z,19.34
2023-04-11T10:32:24.867Z,19.48
2023-04-11T10:33:31.312Z,19.67
2023-04-11T10:34:35.517Z,19.88
2023-04-11T10:35:57.888Z,20.02
2023-04-11T10:37:05.223Z,20.11
2023-04-11T10:38:51.718Z,20.27
2023-04-11T10:40:09.841Z,20.38
2023-04-11T10:41:20.153Z,20.33
2023-04-11T10:42:29.938Z,20.23
2023-04-11T10:43:32.769Z,20.25
2023-04-11T10:44:35.804Z,20.26
2023-04-11T10:45:40.311Z,20.23
2023-04-11T10:46:48.147Z,20.25
2023-04-11T10:48:05.928Z,20.22
2023-04-11T10:49:08.752Z,20.13
2023-04-11T10:50:36.904Z,19.88
2023-04-11T10:51:39.895Z,19.59
2023-04-11T10:52:41.854Z,19.30
2023-04-11T10:53:47.300Z,19.11
2023-04-11T10:54:53.112Z,18.97
2023-04-11T10:55:55.028Z,18.86
2023-04-11T10:56:57.990Z,18.78
2023-04-11T10:58:08.262Z,18.74
2023-04-11T10:59:53.217Z,18.64
2023-04-11T11:01:26.674Z,18.66
2023-04-11T11:02:41.539Z,18.66
2023-04-11T11:03:59.743Z,18.74
2023-04-11T11:05:04.022Z,18.70
2023-04-11T11:06:08.604Z,18.70
2023-04-11T11:07:15.609Z,18.78
2023-04-11T11:08:27.152Z,18.78
2023-04-11T11:09:29.925Z,18.76
2023-04-11T11:10:36.418Z,18.76
2023-04-11T11:11:39.292Z,18.89
2023-04-11T11:12:52.688Z,19.19
2023-04-11T11:13:56.857Z,19.45
2023-04-11T11:14:59.220Z,19.73
2023-04-11T11:16:02.274Z,19.96
2023-04-11T11:17:06.430Z,20.26
2023-04-11T11:18:10.539Z,20.58
2023-04-11T11:19:16.753Z,20.75
2023-04-11T11:20:20.140Z,20.70
2023-04-11T11:21:27.627Z,20.73
2023-04-11T11:22:30.096Z,20.82
2023-04-11T11:23:34.878Z,20.95
2023-04-11T11:24:36.805Z,21.13
2023-04-11T11:25:39.554Z,21.28
2023-04-11T11:26:44.435Z,21.31
2023-04-11T11:27:46.251Z,21.22
2023-04-11T11:28:49.405Z,21.13
2023-04-11T11:29:51.992Z,21.05
2023-04-11T11:30:55.855Z,20.99
2023-04-11T11:31:59.719Z,20.93
2023-04-11T11:33:17.830Z,20.88
2023-04-11T11:34:28.548Z,20.74
2023-04-11T11:35:30.928Z,20.62
2023-04-11T11:36:35.562Z,20.52
2023-04-11T11:37:37.552Z,20.40
2023-04-11T11:38:40.398Z,20.29
2023-04-11T11:39:43.630Z,20.23
2023-04-11T11:40:47.149Z,20.26
2023-04-11T11:41:50.304Z,20.30
2023-04-11T11:42:52.337Z,20.47
2023-04-11T11:43:55.385Z,20.67
2023-04-11T11:45:15.572Z,21.11
2023-04-11T11:46:18.482Z,21.48
2023-04-11T11:47:22.663Z,21.81
2023-04-11T11:48:27.304Z,21.95
2023-04-11T11:49:43.888Z,21.85
2023-04-11T11:50:46.836Z,21.66
2023-04-11T11:51:49.681Z,21.53
2023-04-11T11:52:52.640Z,21.53
2023-04-11T11:54:06.080Z,21.63
2023-04-11T11:55:13.430Z,21.73
2023-04-11T11:56:17.029Z,21.75
2023-04-11T11:57:22.852Z,21.81
2023-04-11T11:58:26.202Z,21.91
2023-04-11T11:59:29.897Z,22.01
2023-04-11T12:00:37.601Z,22.09
2023-04-11T12:01:42.085Z,22.10
2023-04-11T12:02:49.015Z,21.98
2023-04-11T12:03:53.718Z,21.82
2023-04-11T12:04:58.141Z,21.60
2023-04-11T12:06:01.341Z,21.42
2023-04-11T12:07:08.648Z,21.22
2023-04-11T12:08:11.574Z,21.10
2023-04-11T12:09:13.728Z,21.01
2023-04-11T12:10:18.694Z,20.92
2023-04-11T12:11:22.505Z,20.75
2023-04-11T12:12:24.840Z,20.64
2023-04-11T12:13:28.127Z,20.60
2023-04-11T12:14:31.210Z,20.55
2023-04-11T12:15:39.727Z,20.51
2023-04-11T12:16:42.858Z,20.46
2023-04-11T12:17:50.084Z,20.43
2023-04-11T12:18:55.399Z,20.55
2023-04-11T12:19:58.026Z,20.66
2023-04-11T12:21:04.961Z,20.81
2023-04-11T12:22:08.626Z,20.94
2023-04-11T12:23:11.924Z,21.24
2023-04-11T12:24:15.882Z,21.52
2023-04-11T12:25:18.641Z,21.79
2023-04-11T12:26:24.052Z,21.95
2023-04-11T12:27:26.177Z,21.93
2023-04-11T12:28:38.250Z,21.90
2023-04-11T12:29:40.699Z,21.84
2023-04-11T12:30:44.454Z,21.76
2023-04-11T12:31:49.805Z,21.58
2023-04-11T12:32:52.078Z,21.38
2023-04-11T12:33:56.851Z,21.30
2023-04-11T12:34:59.584Z,21.36
2023-04-11T12:36:07.607Z,21.32
2023-04-11T12:37:10.060Z,21.41
2023-04-11T12:38:16.576Z,21.59
2023-04-11T12:39:20.439Z,21.65
2023-04-11T12:40:23.471Z,21.72
2023-04-11T12:42:34.779Z,21.73
2023-04-11T12:43:40.402Z,21.57
2023-04-11T12:44:43.376Z,21.35
2023-04-11T12:45:46.516Z,21.06
2023-04-11T12:46:48.518Z,20.73
2023-04-11T12:47:52.045Z,20.36
2023-04-11T12:48:56.614Z,20.02
2023-04-11T12:49:59.364Z,19.67
2023-04-11T12:51:02.928Z,19.36
2023-04-11T12:52:05.137Z,19.02
2023-04-11T12:53:08.146Z,18.86
2023-04-11T12:54:10.337Z,18.75
2023-04-11T12:55:14.103Z,18.72
2023-04-11T12:56:16.061Z,18.80
2023-04-11T12:58:45.058Z,19.22
2023-04-11T12:59:50.308Z,19.49
2023-04-11T13:00:53.814Z,19.71
2023-04-11T13:01:57.220Z,19.98
2023-04-11T13:03:01.186Z,20.23
2023-04-11T13:04:05.924Z,20.45
2023-04-11T13:05:10.684Z,20.54
2023-04-11T13:06:14.130Z,20.47
2023-04-11T13:07:17.730Z,20.36
2023-04-11T13:08:21.312Z,20.14
2023-04-11T13:09:24.028Z,19.93
2023-04-11T13:10:27.672Z,19.83
2023-04-11T13:11:30.040Z,19.76
2023-04-11T13:12:34.352Z,19.78
2023-04-11T13:13:38.156Z,19.83
2023-04-11T13:14:41.768Z,19.89
2023-04-11T13:15:46.996Z,19.91
2023-04-11T13:16:58.865Z,19.93
2023-04-11T13:18:02.291Z,19.88
2023-04-11T13:19:07.792Z,19.75
2023-04-11T13:20:13.015Z,19.66
2023-04-11T13:21:16.842Z,19.61
2023-04-11T13:22:18.897Z,19.59
2023-04-11T13:23:22.569Z,19.55
2023-04-11T13:24:26.656Z,19.50
2023-04-11T13:25:29.989Z,19.41
2023-04-11T13:26:33.232Z,19.29
2023-04-11T13:27:37.502Z,19.13
2023-04-11T13:28:40.433Z,19.00
2023-04-11T13:29:43.862Z,19.04
2023-04-11T13:30:47.044Z,19.28
2023-04-11T13:31:49.781Z,19.58
2023-04-11T13:32:53.523Z,19.91
2023-04-11T13:33:56.562Z,20.29
2023-04-11T13:35:00.873Z,20.64
2023-04-11T13:36:05.045Z,20.90
2023-04-11T13:37:11.393Z,21.03
2023-04-11T13:38:14.117Z,21.04
2023-04-11T13:39:21.247Z,21.18
2023-04-11T13:40:24.185Z,21.21
2023-04-11T13:41:27.622Z,21.28
2023-04-11T13:42:31.588Z,21.31
2023-04-11T13:43:34.743Z,21.26
2023-04-11T13:44:38.629Z,21.24
2023-04-11T13:45:41.272Z,21.14
2023-04-11T13:46:44.595Z,21.04
2023-04-11T13:47:46.934Z,21.06
2023-04-11T13:49:21.507Z,21.08
2023-04-11T13:50:29.076Z,21.12
2023-04-11T13:54:09.150Z,20.81
2023-04-11T13:57:18.306Z,20.25
2023-04-11T13:58:43.107Z,20.28
2023-04-11T14:00:13.173Z,20.33
2023-04-11T14:01:15.625Z,20.31
2023-04-11T14:02:19.451Z,20.26
2023-04-11T14:03:21.898Z,20.20
2023-04-11T14:04:25.357Z,20.21
2023-04-11T14:05:32.632Z,20.32
2023-04-11T14:06:37.582Z,20.39
2023-04-11T14:07:41.204Z,20.33
2023-04-11T14:08:45.208Z,20.20
2023-04-11T14:09:50.038Z,20.17
2023-04-11T14:10:55.141Z,20.13
2023-04-11T14:12:20.247Z,20.05
2023-04-11T14:13:27.756Z,19.88
2023-04-11T14:14:31.836Z,19.76
2023-04-11T14:15:34.377Z,19.64
2023-04-11T14:16:38.089Z,19.51
2023-04-11T14:17:40.523Z,19.35
2023-04-11T14:18:47.335Z,19.21
2023-04-11T14:19:49.548Z,19.02
2023-04-11T14:20:56.740Z,18.87
2023-04-11T14:22:00.136Z,18.66
2023-04-11T14:23:10.385Z,18.47
2023-04-11T14:24:13.977Z,18.36
2023-04-11T14:25:16.687Z,18.22
2023-04-11T14:26:21.047Z,18.07
2023-04-11T14:27:26.743Z,17.91
2023-04-11T14:28:30.537Z,17.76
2023-04-11T14:29:34.597Z,17.63
2023-04-11T14:30:37.008Z,17.51
2023-04-11T14:31:42.764Z,17.38
2023-04-11T14:34:25.809Z,17.07
2023-04-11T14:35:55.852Z,16.98
2023-04-11T14:37:47.292Z,16.75
2023-04-11T14:39:00.972Z,16.65
2023-04-11T14:40:08.038Z,16.59
2023-04-11T14:41:52.562Z,16.47
2023-04-11T14:43:06.681Z,16.38
2023-04-11T14:46:27.422Z,16.23
2023-04-11T14:47:31.525Z,16.22
2023-04-11T14:48:35.539Z,16.25
2023-04-11T14:49:45.413Z,16.27
2023-04-11T14:50:55.536Z,16.26
2023-04-11T14:52:04.022Z,16.23
2023-04-11T14:53:12.712Z,16.22
2023-04-11T14:54:15.992Z,16.18
2023-04-11T14:55:19.390Z,16.15
2023-04-11T14:56:22.423Z,16.09
2023-04-11T14:57:25.964Z,16.07
2023-04-11T14:58:29.055Z,16.06
2023-04-11T14:59:32.654Z,16.02
2023-04-11T15:00:35.939Z,16.00
2023-04-11T15:01:41.877Z,15.96
2023-04-11T15:02:49.906Z,15.89
2023-04-11T15:03:55.827Z,15.80
2023-04-11T15:04:58.311Z,15.72
2023-04-11T15:06:08.064Z,15.67
2023-04-11T15:07:10.147Z,15.59
2023-04-11T15:08:18.241Z,15.50
2023-04-11T15:09:22.844Z,15.42
2023-04-11T15:10:26.769Z,15.32
2023-04-11T15:11:36.458Z,15.25
2023-04-11T15:12:43.187Z,15.20
2023-04-11T15:13:59.755Z,15.14
2023-04-11T15:15:12.492Z,15.09
2023-04-11T15:16:20.688Z,15.07
2023-04-11T15:17:23.199Z,15.00
2023-04-11T15:18:28.022Z,14.89
2023-04-11T15:19:36.469Z,14.84
2023-04-11T15:20:42.514Z,14.76
2023-04-11T15:23:11.629Z,14.61
2023-04-11T15:24:17.060Z,14.54
2023-04-11T15:25:21.229Z,14.51
2023-04-11T15:26:28.669Z,14.46
2023-04-11T15:27:31.009Z,14.42
2023-04-11T15:28:37.931Z,14.31
2023-04-11T15:29:40.619Z,14.19
2023-04-11T15:30:48.744Z,14.10
2023-04-11T15:31:55.196Z,14.00
2023-04-11T15:32:58.332Z,13.89